Time;durP1;ratioP1;P1;durP2;ratioP2;P2;SDS_P1;SDS_P2;PMS_P1;PMS_P2;Temp;Humidity;BMP_temperature;BMP_pressure;BME280_temperature;BME280_humidity;BME280_pressure;Samples;Min_cycle;Max_cycle;Signal;HPM_P1;HPM_P2
2023/03/20 00:00:33;;;;;;;;;16.00;14.50;;;;;-147.17;100.00;-15917.19;5039877;28;51196;-46
2023/03/20 00:02:59;;;;;;;;;9.75;9.75;;;;;-147.17;100.00;-15917.19;5031342;28;52857;-46
2023/03/20 00:05:27;;;;;;;;;11.75;11.00;;;;;-147.17;100.00;-15917.19;5032073;28;51972;-48
2023/03/20 00:07:54;;;;;;;;;11.00;11.00;;;;;-147.17;100.00;-15917.19;5031093;28;51098;-48
2023/03/20 00:10:20;;;;;;;;;15.25;13.75;;;;;-147.17;100.00;-15917.19;5022644;28;51104;-49
2023/03/20 00:12:48;;;;;;;;;5.25;5.25;;;;;-147.17;100.00;-15917.19;5028414;28;51332;-46
2023/03/20 00:15:24;;;;;;;;;9.00;7.00;;;;;-147.17;100.00;-15917.19;5021593;28;52090;-55
2023/03/20 00:17:50;;;;;;;;;7.25;6.00;;;;;-147.17;100.00;-15917.19;5021863;28;51169;-47
2023/03/20 00:20:16;;;;;;;;;10.75;10.00;;;;;-147.17;100.00;-15917.19;5009737;28;51425;-47
2023/03/20 00:22:41;;;;;;;;;8.00;8.00;;;;;-147.17;100.00;-15917.19;5029544;28;50964;-47
2023/03/20 00:25:13;;;;;;;;;9.00;8.00;;;;;-147.17;100.00;-15917.19;5032316;28;52527;-49
2023/03/20 00:27:38;;;;;;;;;5.00;5.00;;;;;-147.17;100.00;-15917.19;5033475;28;51051;-47
2023/03/20 00:30:17;;;;;;;;;8.75;7.75;;;;;-147.17;100.00;-15917.19;5032158;28;51124;-48
2023/03/20 00:32:43;;;;;;;;;8.00;6.00;;;;;-147.17;100.00;-15917.19;5019423;28;51268;-47
2023/03/20 00:35:29;;;;;;;;;9.25;8.50;;;;;-147.17;100.00;-15917.19;5030936;28;51102;-48
2023/03/20 00:37:57;;;;;;;;;5.25;5.25;;;;;-147.17;100.00;-15917.19;5039483;28;51213;-49
2023/03/20 00:40:29;;;;;;;;;8.25;8.25;;;;;-147.17;100.00;-15917.19;5028334;28;51220;-47
2023/03/20 00:43:00;;;;;;;;;8.00;8.00;;;;;-147.17;100.00;-15917.19;5029761;28;51407;-46
2023/03/20 00:45:28;;;;;;;;;7.75;6.75;;;;;-147.17;100.00;-15917.19;5025688;28;51939;-49
2023/03/20 00:47:54;;;;;;;;;10.00;7.75;;;;;-147.17;100.00;-15917.19;5022174;28;52827;-46
2023/03/20 00:50:22;;;;;;;;;11.00;9.75;;;;;-147.17;100.00;-15917.19;5014176;28;51063;-46
2023/03/20 00:52:50;;;;;;;;;5.00;5.00;;;;;-147.17;100.00;-15917.19;5008582;28;53034;-49
2023/03/20 00:55:17;;;;;;;;;9.00;8.50;;;;;-147.17;100.00;-15917.19;5030832;28;52026;-49
2023/03/20 00:57:48;;;;;;;;;8.50;7.00;;;;;-147.17;100.00;-15917.19;5014524;28;51199;-46
2023/03/20 01:00:26;;;;;;;;;10.00;9.00;;;;;-147.17;100.00;-15917.19;5025341;28;51269;-46
2023/03/20 01:02:54;;;;;;;;;9.00;8.75;;;;;-147.17;100.00;-15917.19;5032758;28;51115;-48
2023/03/20 01:05:20;;;;;;;;;9.75;9.75;;;;;-147.17;100.00;-15917.19;5031682;28;51942;-48
2023/03/20 01:07:46;;;;;;;;;8.25;7.50;;;;;-147.17;100.00;-15917.19;5021060;28;51379;-47
2023/03/20 01:10:12;;;;;;;;;10.50;9.50;;;;;-147.17;100.00;-15917.19;5031623;28;51167;-48
2023/03/20 01:12:39;;;;;;;;;8.00;8.00;;;;;-147.17;100.00;-15917.19;5029160;28;51213;-48
2023/03/20 01:15:26;;;;;;;;;8.75;8.75;;;;;-147.17;100.00;-15917.19;5031419;28;51722;-47
2023/03/20 01:17:51;;;;;;;;;7.75;7.25;;;;;-147.17;100.00;-15917.19;5037307;28;51365;-48
2023/03/20 01:20:24;;;;;;;;;9.50;9.50;;;;;-147.17;100.00;-15917.19;5009293;28;51155;-46
2023/03/20 01:22:50;;;;;;;;;8.00;8.00;;;;;-147.17;100.00;-15917.19;5024817;28;51403;-46
2023/03/20 01:25:16;;;;;;;;;12.00;12.00;;;;;-147.17;100.00;-15917.19;5030493;28;51643;-47
2023/03/20 01:27:45;;;;;;;;;16.75;16.00;;;;;-147.17;100.00;-15917.19;5030610;28;51090;-47
2023/03/20 01:30:17;;;;;;;;;12.00;10.75;;;;;-147.17;100.00;-15917.19;5031010;28;51091;-48
2023/03/20 01:32:43;;;;;;;;;10.50;10.00;;;;;-147.17;100.00;-15917.19;5026904;28;51157;-47
2023/03/20 01:35:12;;;;;;;;;8.50;8.25;;;;;-147.17;100.00;-15917.19;5030911;28;51101;-46
2023/03/20 01:37:38;;;;;;;;;11.00;10.00;;;;;-147.17;100.00;-15917.19;5011009;28;51150;-49
2023/03/20 01:40:18;;;;;;;;;8.00;8.00;;;;;-147.17;100.00;-15917.19;5030325;28;51173;-49
2023/03/20 01:42:43;;;;;;;;;9.25;8.50;;;;;-147.17;100.00;-15917.19;5008341;28;51398;-47
2023/03/20 01:45:17;;;;;;;;;10.00;9.25;;;;;-147.17;100.00;-15917.19;5024312;28;51757;-47
2023/03/20 01:47:43;;;;;;;;;9.00;7.25;;;;;-147.17;100.00;-15917.19;5008791;28;51109;-47
2023/03/20 01:50:22;;;;;;;;;10.50;8.50;;;;;-147.17;100.00;-15917.19;5029199;28;51638;-48
2023/03/20 01:52:51;;;;;;;;;8.75;8.00;;;;;-147.17;100.00;-15917.19;5031450;28;51232;-48
2023/03/20 01:55:19;;;;;;;;;8.75;8.50;;;;;-147.17;100.00;-15917.19;5005260;28;51415;-46
2023/03/20 01:57:45;;;;;;;;;8.00;7.50;;;;;-147.17;100.00;-15917.19;5033670;28;51135;-46
2023/03/20 02:00:13;;;;;;;;;9.00;8.00;;;;;-147.17;100.00;-15917.19;5033713;28;51234;-47
2023/03/20 02:02:40;;;;;;;;;8.00;8.00;;;;;-147.17;100.00;-15917.19;5013576;28;51283;-46
2023/03/20 02:05:09;;;;;;;;;11.50;10.75;;;;;-147.17;100.00;-15917.19;5026670;28;51084;-46
2023/03/20 02:07:37;;;;;;;;;10.50;9.00;;;;;-147.17;100.00;-15917.19;5033589;28;51193;-46
2023/03/20 02:10:09;;;;;;;;;8.00;7.25;;;;;-147.17;100.00;-15917.19;5028564;28;51158;-46
2023/03/20 02:12:36;;;;;;;;;9.75;8.50;;;;;-147.17;100.00;-15917.19;5033048;28;51335;-47
2023/03/20 02:15:04;;;;;;;;;8.00;8.00;;;;;-147.17;100.00;-15917.19;5011471;28;52592;-48
2023/03/20 02:17:29;;;;;;;;;7.00;6.50;;;;;-147.17;100.00;-15917.19;5030777;28;51185;-48
2023/03/20 02:20:08;;;;;;;;;6.50;6.50;;;;;-147.17;100.00;-15917.19;5031898;28;50972;-46
2023/03/20 02:22:49;;;;;;;;;7.50;7.50;;;;;-147.17;100.00;-15917.19;5027477;28;51142;-47
2023/03/20 02:25:26;;;;;;;;;9.75;8.00;;;;;-147.17;100.00;-15917.19;5030053;28;51339;-47
2023/03/20 02:28:10;;;;;;;;;10.00;10.00;;;;;-147.17;100.00;-15917.19;5015249;28;51122;-46
2023/03/20 02:30:42;;;;;;;;;1.00;0.00;;;;;-147.17;100.00;-15917.19;5028382;28;51034;-47
2023/03/20 02:33:35;;;;;;;;;15.25;14.50;;;;;-147.17;100.00;-15917.19;5030891;28;51425;-46
2023/03/20 02:36:28;;;;;;;;;15.25;13.75;;;;;-147.17;100.00;-15917.19;5013772;28;53205;-47
2023/03/20 02:38:56;;;;;;;;;11.50;11.00;;;;;-147.17;100.00;-15917.19;5030720;28;51094;-50
2023/03/20 02:41:32;;;;;;;;;19.25;17.25;;;;;-147.17;100.00;-15917.19;5032002;28;51055;-48
2023/03/20 02:44:05;;;;;;;;;18.50;16.75;;;;;-147.17;100.00;-15917.19;5025161;28;51173;-49
2023/03/20 02:46:42;;;;;;;;;13.75;13.75;;;;;-147.17;100.00;-15917.19;5030979;28;52057;-50
2023/03/20 02:49:19;;;;;;;;;20.00;19.00;;;;;-147.17;100.00;-15917.19;5030859;28;51226;-48
2023/03/20 02:52:04;;;;;;;;;15.75;15.50;;;;;-147.17;100.00;-15917.19;5031292;28;51082;-49
2023/03/20 02:54:42;;;;;;;;;17.75;17.00;;;;;-147.17;100.00;-15917.19;5029867;28;51070;-47
2023/03/20 02:57:15;;;;;;;;;16.00;15.50;;;;;-147.17;100.00;-15917.19;5031651;28;52475;-48
2023/03/20 02:59:51;;;;;;;;;20.00;18.75;;;;;-147.17;100.00;-15917.19;5029997;28;51028;-47
2023/03/20 03:02:25;;;;;;;;;17.00;17.00;;;;;-147.17;100.00;-15917.19;5030028;28;51110;-48
2023/03/20 03:04:58;;;;;;;;;20.50;19.00;;;;;-147.17;100.00;-15917.19;5027058;28;51109;-48
2023/03/20 03:07:29;;;;;;;;;21.00;20.00;;;;;-147.17;100.00;-15917.19;5036351;28;51392;-48
2023/03/20 03:10:02;;;;;;;;;25.50;23.50;;;;;-147.17;100.00;-15917.19;5025225;28;51171;-48
2023/03/20 03:12:50;;;;;;;;;26.00;25.50;;;;;-147.17;100.00;-15917.19;5009591;28;51183;-46
2023/03/20 03:15:25;;;;;;;;;24.25;22.75;;;;;-147.17;100.00;-15917.19;5033484;28;51177;-46
2023/03/20 03:17:52;;;;;;;;;21.25;20.75;;;;;-147.17;100.00;-15917.19;4997210;28;52051;-47
2023/03/20 03:20:26;;;;;;;;;27.50;25.50;;;;;-147.17;100.00;-15917.19;5026667;28;51213;-48
2023/03/20 03:22:52;;;;;;;;;25.25;23.50;;;;;-147.17;100.00;-15917.19;5021671;28;51079;-47
2023/03/20 03:25:21;;;;;;;;;27.75;26.75;;;;;-147.17;100.00;-15917.19;5029092;28;51164;-47
2023/03/20 03:27:55;;;;;;;;;29.50;24.50;;;;;-147.17;100.00;-15917.19;5028059;28;51215;-48
2023/03/20 03:30:26;;;;;;;;;24.50;23.25;;;;;-147.17;100.00;-15917.19;5031550;28;51006;-46
2023/03/20 03:33:20;;;;;;;;;25.00;25.00;;;;;-147.17;100.00;-15917.19;5019481;28;51199;-46
2023/03/20 03:35:47;;;;;;;;;30.00;30.00;;;;;-147.17;100.00;-15917.19;5017941;28;51118;-47
2023/03/20 03:38:27;;;;;;;;;25.75;25.25;;;;;-147.17;100.00;-15917.19;5030936;28;52130;-47
2023/03/20 03:41:05;;;;;;;;;29.00;27.75;;;;;-147.17;100.00;-15917.19;5029497;28;51232;-46
2023/03/20 03:44:05;;;;;;;;;27.25;24.50;;;;;-147.17;100.00;-15917.19;5029748;28;51140;-48
2023/03/20 03:46:48;;;;;;;;;25.25;24.75;;;;;-147.17;100.00;-15917.19;5020428;28;51283;-47
2023/03/20 03:49:21;;;;;;;;;21.00;19.50;;;;;-147.17;100.00;-15917.19;5023911;28;52092;-46
2023/03/20 03:51:52;;;;;;;;;25.25;22.75;;;;;-147.17;100.00;-15917.19;5028469;28;51172;-45
2023/03/20 03:54:22;;;;;;;;;18.75;18.25;;;;;-147.17;100.00;-15917.19;5028735;28;51143;-46
2023/03/20 03:56:49;;;;;;;;;14.00;14.00;;;;;-147.17;100.00;-15917.19;5032755;28;51099;-48
2023/03/20 03:59:26;;;;;;;;;21.00;20.00;;;;;-147.17;100.00;-15917.19;5032823;28;52457;-47
2023/03/20 04:01:53;;;;;;;;;23.25;19.75;;;;;-147.17;100.00;-15917.19;5032124;28;52061;-47
2023/03/20 04:04:20;;;;;;;;;31.75;31.25;;;;;-147.17;100.00;-15917.19;5031707;28;51022;-47
2023/03/20 04:06:46;;;;;;;;;48.50;41.25;;;;;-147.17;100.00;-15917.19;5027487;28;52091;-48
2023/03/20 04:09:12;;;;;;;;;44.25;39.00;;;;;-147.17;100.00;-15917.19;5029644;28;51251;-48
2023/03/20 04:11:37;;;;;;;;;46.50;39.25;;;;;-147.17;100.00;-15917.19;5030042;28;51279;-49
2023/03/20 04:14:02;;;;;;;;;34.75;29.25;;;;;-147.17;100.00;-15917.19;5031778;28;51043;-48
2023/03/20 04:16:28;;;;;;;;;40.00;38.25;;;;;-147.17;100.00;-15917.19;5032449;28;51137;-51
2023/03/20 04:18:54;;;;;;;;;32.25;32.25;;;;;-147.17;100.00;-15917.19;5031507;28;60722;-47
2023/03/20 04:21:20;;;;;;;;;28.00;27.50;;;;;-147.17;100.00;-15917.19;5031075;28;51076;-48
2023/03/20 04:23:45;;;;;;;;;24.25;21.25;;;;;-147.17;100.00;-15917.19;5010784;28;51267;-47
2023/03/20 04:26:11;;;;;;;;;19.50;18.25;;;;;-147.17;100.00;-15917.19;5031180;28;51047;-47
2023/03/20 04:28:37;;;;;;;;;15.75;15.00;;;;;-147.17;100.00;-15917.19;5027039;28;51366;-48
2023/03/20 04:31:03;;;;;;;;;16.50;16.50;;;;;-147.17;100.00;-15917.19;5036962;28;51138;-50
2023/03/20 04:33:28;;;;;;;;;17.00;16.00;;;;;-147.17;100.00;-15917.19;5030069;28;51280;-47
2023/03/20 04:35:55;;;;;;;;;15.75;14.75;;;;;-147.17;100.00;-15917.19;5032146;28;51431;-47
2023/03/20 04:38:21;;;;;;;;;12.00;11.75;;;;;-147.17;100.00;-15917.19;5012085;28;53082;-47
2023/03/20 04:40:48;;;;;;;;;15.25;15.00;;;;;-147.17;100.00;-15917.19;5026708;28;51189;-48
2023/03/20 04:43:14;;;;;;;;;18.50;17.00;;;;;-147.17;100.00;-15917.19;5013547;28;51064;-47
2023/03/20 04:45:40;;;;;;;;;16.50;15.50;;;;;-147.17;100.00;-15917.19;5032058;28;51933;-48
2023/03/20 04:48:06;;;;;;;;;18.50;16.00;;;;;-147.17;100.00;-15917.19;5030738;28;51887;-48
2023/03/20 04:50:32;;;;;;;;;15.50;14.75;;;;;-147.17;100.00;-15917.19;5031208;28;51307;-47
2023/03/20 04:52:57;;;;;;;;;20.75;19.75;;;;;-147.17;100.00;-15917.19;5024138;28;51353;-51
2023/03/20 04:55:23;;;;;;;;;17.00;16.75;;;;;-147.17;100.00;-15917.19;5030244;28;50893;-49
2023/03/20 04:57:49;;;;;;;;;15.25;14.25;;;;;-147.17;100.00;-15917.19;5027342;28;51109;-47
2023/03/20 05:00:15;;;;;;;;;13.25;13.00;;;;;-147.17;100.00;-15917.19;5030934;28;50939;-49
2023/03/20 05:02:40;;;;;;;;;18.50;17.75;;;;;-147.17;100.00;-15917.19;5030326;28;52901;-47
2023/03/20 05:05:06;;;;;;;;;18.75;16.75;;;;;-147.17;100.00;-15917.19;5031012;28;52124;-48
2023/03/20 05:07:32;;;;;;;;;15.00;15.00;;;;;-147.17;100.00;-15917.19;5012122;28;52552;-50
2023/03/20 05:09:57;;;;;;;;;16.50;14.00;;;;;-147.17;100.00;-15917.19;5025190;28;51142;-50
2023/03/20 05:12:23;;;;;;;;;22.25;20.00;;;;;-147.17;100.00;-15917.19;5029494;28;51193;-51
2023/03/20 05:14:49;;;;;;;;;19.25;17.25;;;;;-147.17;100.00;-15917.19;5010045;28;51369;-48
2023/03/20 05:17:15;;;;;;;;;21.75;19.75;;;;;-147.17;100.00;-15917.19;5028874;28;51266;-50
2023/03/20 05:19:41;;;;;;;;;20.00;19.00;;;;;-147.17;100.00;-15917.19;5030954;28;50935;-50
2023/03/20 05:22:07;;;;;;;;;25.75;23.75;;;;;-147.17;100.00;-15917.19;5012445;28;51118;-47
2023/03/20 05:24:32;;;;;;;;;19.50;19.00;;;;;-147.17;100.00;-15917.19;5014097;28;50991;-49
2023/03/20 05:26:58;;;;;;;;;22.00;21.50;;;;;-147.17;100.00;-15917.19;5041091;28;52135;-47
2023/03/20 05:29:23;;;;;;;;;22.50;21.00;;;;;-147.17;100.00;-15917.19;5024867;28;51105;-49
2023/03/20 05:31:48;;;;;;;;;33.75;30.75;;;;;-147.17;100.00;-15917.19;5031114;28;51130;-47
2023/03/20 05:34:14;;;;;;;;;24.75;24.50;;;;;-147.17;100.00;-15917.19;5036118;28;50988;-46
2023/03/20 05:36:39;;;;;;;;;24.75;21.50;;;;;-147.17;100.00;-15917.19;5034146;28;51294;-51
2023/03/20 05:39:05;;;;;;;;;24.00;21.50;;;;;-147.17;100.00;-15917.19;5034440;28;51119;-47
2023/03/20 05:41:30;;;;;;;;;24.50;24.00;;;;;-147.17;100.00;-15917.19;5016471;28;51059;-49
2023/03/20 05:43:56;;;;;;;;;18.75;18.25;;;;;-147.17;100.00;-15917.19;5031034;28;51377;-49
2023/03/20 05:46:21;;;;;;;;;22.75;20.50;;;;;-147.17;100.00;-15917.19;5035235;28;50965;-47
2023/03/20 05:48:47;;;;;;;;;26.00;24.00;;;;;-147.17;100.00;-15917.19;5000219;28;51297;-49
2023/03/20 05:51:14;;;;;;;;;21.75;21.25;;;;;-147.17;100.00;-15917.19;5030301;28;51022;-47
2023/03/20 05:53:39;;;;;;;;;15.75;15.00;;;;;-147.17;100.00;-15917.19;5011895;28;51372;-48
2023/03/20 05:56:05;;;;;;;;;23.00;20.25;;;;;-147.17;100.00;-15917.19;5034935;28;56317;-48
2023/03/20 05:58:31;;;;;;;;;16.00;13.75;;;;;-147.17;100.00;-15917.19;5034284;28;51034;-49
2023/03/20 06:00:57;;;;;;;;;15.00;13.75;;;;;-147.17;100.00;-15917.19;5029660;28;51312;-48
2023/03/20 06:03:22;;;;;;;;;13.25;12.75;;;;;-147.17;100.00;-15917.19;5028434;28;51634;-49
2023/03/20 06:05:48;;;;;;;;;13.50;12.75;;;;;-147.17;100.00;-15917.19;5034451;28;51093;-48
2023/03/20 06:08:14;;;;;;;;;13.50;11.25;;;;;-147.17;100.00;-15917.19;5014823;28;51088;-49
2023/03/20 06:10:40;;;;;;;;;10.25;8.50;;;;;-147.17;100.00;-15917.19;5034411;28;51189;-48
2023/03/20 06:13:05;;;;;;;;;12.50;9.50;;;;;-147.17;100.00;-15917.19;5033909;28;51159;-48
2023/03/20 06:15:30;;;;;;;;;10.25;8.25;;;;;-147.17;100.00;-15917.19;5034074;28;51983;-49
2023/03/20 06:17:56;;;;;;;;;9.25;9.00;;;;;-147.17;100.00;-15917.19;5034062;28;51135;-48
2023/03/20 06:20:22;;;;;;;;;8.50;7.50;;;;;-147.17;100.00;-15917.19;5034704;28;51148;-48
2023/03/20 06:22:47;;;;;;;;;8.00;8.00;;;;;-147.17;100.00;-15917.19;5015924;28;51283;-51
2023/03/20 06:25:13;;;;;;;;;7.75;7.75;;;;;-147.17;100.00;-15917.19;5035874;28;52222;-50
2023/03/20 06:27:38;;;;;;;;;7.00;6.25;;;;;-147.17;100.00;-15917.19;5022695;28;51033;-48
2023/03/20 06:30:04;;;;;;;;;7.00;7.00;;;;;-147.17;100.00;-15917.19;5033342;28;51033;-48
2023/03/20 06:32:30;;;;;;;;;7.50;6.00;;;;;-147.17;100.00;-15917.19;5034780;28;50948;-48
2023/03/20 06:34:55;;;;;;;;;6.75;6.75;;;;;-147.17;100.00;-15917.19;5033819;28;51730;-50
2023/03/20 06:37:21;;;;;;;;;6.50;6.25;;;;;-147.17;100.00;-15917.19;5015338;28;51022;-53
2023/03/20 06:39:46;;;;;;;;;6.50;6.50;;;;;-147.17;100.00;-15917.19;5031232;28;51117;-48
2023/03/20 06:42:12;;;;;;;;;8.25;7.25;;;;;-147.17;100.00;-15917.19;5011368;28;51124;-48
2023/03/20 06:44:38;;;;;;;;;7.00;6.00;;;;;-147.17;100.00;-15917.19;5032370;28;52122;-47
2023/03/20 06:47:03;;;;;;;;;7.50;7.25;;;;;-147.17;100.00;-15917.19;5030164;28;51059;-49
2023/03/20 06:49:28;;;;;;;;;7.00;6.25;;;;;-147.17;100.00;-15917.19;5033915;28;51361;-48
2023/03/20 06:51:54;;;;;;;;;7.75;7.50;;;;;-147.17;100.00;-15917.19;5031867;28;51038;-46
2023/03/20 06:54:19;;;;;;;;;9.25;8.25;;;;;-147.17;100.00;-15917.19;5031888;28;51101;-48
2023/03/20 06:56:45;;;;;;;;;7.00;6.50;;;;;-147.17;100.00;-15917.19;5032921;28;51202;-45
2023/03/20 06:59:11;;;;;;;;;9.75;9.00;;;;;-147.17;100.00;-15917.19;5015485;28;51145;-47
2023/03/20 07:01:37;;;;;;;;;6.00;5.50;;;;;-147.17;100.00;-15917.19;5007381;28;51101;-49
2023/03/20 07:04:02;;;;;;;;;6.25;5.00;;;;;-147.17;100.00;-15917.19;5018663;28;51313;-47
2023/03/20 07:06:28;;;;;;;;;8.00;7.25;;;;;-147.17;100.00;-15917.19;5009466;28;51298;-46
2023/03/20 07:08:53;;;;;;;;;8.25;8.25;;;;;-147.17;100.00;-15917.19;5025834;28;51725;-47
2023/03/20 07:11:19;;;;;;;;;9.00;8.00;;;;;-147.17;100.00;-15917.19;5013303;28;51333;-46
2023/03/20 07:13:44;;;;;;;;;8.00;8.00;;;;;-147.17;100.00;-15917.19;5030971;28;52407;-48
2023/03/20 07:16:10;;;;;;;;;8.50;7.50;;;;;-147.17;100.00;-15917.19;5025935;28;51353;-47
2023/03/20 07:18:36;;;;;;;;;7.00;7.00;;;;;-147.17;100.00;-15917.19;5015793;28;51139;-51
2023/03/20 07:21:04;;;;;;;;;8.75;8.75;;;;;-147.17;100.00;-15917.19;5025960;28;51163;-48
2023/03/20 07:23:30;;;;;;;;;5.00;5.00;;;;;-147.17;100.00;-15917.19;5000313;28;53363;-48
2023/03/20 07:25:56;;;;;;;;;6.75;6.75;;;;;-147.17;100.00;-15917.19;5012393;28;51249;-47
2023/03/20 07:28:22;;;;;;;;;5.50;5.50;;;;;-147.17;100.00;-15917.19;5033682;28;51047;-47
2023/03/20 07:30:47;;;;;;;;;8.00;6.25;;;;;-147.17;100.00;-15917.19;5033006;28;51108;-46
2023/03/20 07:33:12;;;;;;;;;4.25;4.25;;;;;-147.17;100.00;-15917.19;5029132;28;52027;-48
2023/03/20 07:35:38;;;;;;;;;8.00;7.50;;;;;-147.17;100.00;-15917.19;5038462;28;51133;-47
2023/03/20 07:38:05;;;;;;;;;4.00;4.00;;;;;-147.17;100.00;-15917.19;5039135;28;52750;-49
2023/03/20 07:40:31;;;;;;;;;9.00;7.00;;;;;-147.17;100.00;-15917.19;5025445;28;51273;-49
2023/03/20 07:42:57;;;;;;;;;11.50;11.50;;;;;-147.17;100.00;-15917.19;5031505;28;53121;-48
2023/03/20 07:45:22;;;;;;;;;21.75;17.50;;;;;-147.17;100.00;-15917.19;5015163;28;50979;-50
2023/03/20 07:47:47;;;;;;;;;11.75;11.75;;;;;-147.17;100.00;-15917.19;5031992;28;51497;-47
2023/03/20 07:50:13;;;;;;;;;10.00;9.25;;;;;-147.17;100.00;-15917.19;5033172;28;51111;-48
2023/03/20 07:52:39;;;;;;;;;10.00;9.75;;;;;-147.17;100.00;-15917.19;5014549;28;52761;-49
2023/03/20 07:55:06;;;;;;;;;10.25;10.00;;;;;-147.17;100.00;-15917.19;5033327;28;51050;-48
2023/03/20 07:57:31;;;;;;;;;12.50;12.50;;;;;-147.17;100.00;-15917.19;5014356;28;51205;-48
2023/03/20 07:59:57;;;;;;;;;11.00;11.00;;;;;-147.17;100.00;-15917.19;5015066;28;51068;-50
2023/03/20 08:02:22;;;;;;;;;12.00;12.00;;;;;-147.17;100.00;-15917.19;5032377;28;51108;-48
2023/03/20 08:04:48;;;;;;;;;11.00;9.50;;;;;-147.17;100.00;-15917.19;5033136;28;51090;-48
2023/03/20 08:07:13;;;;;;;;;11.25;10.75;;;;;-147.17;100.00;-15917.19;5032896;28;51183;-48
2023/03/20 08:09:39;;;;;;;;;12.25;12.00;;;;;-147.17;100.00;-15917.19;5031368;28;51046;-49
2023/03/20 08:12:05;;;;;;;;;10.25;9.25;;;;;-147.17;100.00;-15917.19;5040753;28;52000;-47
2023/03/20 08:14:30;;;;;;;;;12.00;11.75;;;;;-147.17;100.00;-15917.19;5032723;28;51133;-46
2023/03/20 08:16:56;;;;;;;;;11.00;11.00;;;;;-147.17;100.00;-15917.19;5032947;28;51065;-49
2023/03/20 08:19:22;;;;;;;;;8.75;8.00;;;;;-147.17;100.00;-15917.19;5014118;28;51082;-48
2023/03/20 08:21:48;;;;;;;;;8.25;8.25;;;;;-147.17;100.00;-15917.19;5035677;28;52243;-50
2023/03/20 08:24:14;;;;;;;;;10.75;10.00;;;;;-147.17;100.00;-15917.19;5035205;28;51031;-49
2023/03/20 08:26:39;;;;;;;;;10.00;9.00;;;;;-147.17;100.00;-15915.72;5014103;28;51134;-48
2023/03/20 08:29:05;;;;;;;;;10.00;9.00;;;;;-147.17;100.00;-15917.19;5031775;28;51193;-47
2023/03/20 08:31:30;;;;;;;;;10.00;10.00;;;;;-147.17;100.00;-15915.72;5028161;28;51861;-48
2023/03/20 08:33:56;;;;;;;;;9.50;9.50;;;;;-147.17;100.00;-15915.72;5009613;28;51095;-47
2023/03/20 08:36:22;;;;;;;;;9.25;9.25;;;;;-147.17;100.00;-15917.19;5031781;28;51142;-49
2023/03/20 08:38:49;;;;;;;;;8.00;8.00;;;;;-147.17;100.00;-15917.19;5028800;28;51437;-48
2023/03/20 08:41:15;;;;;;;;;7.25;7.25;;;;;-147.17;100.00;-15915.72;5030867;28;52025;-47
2023/03/20 08:43:40;;;;;;;;;6.75;5.75;;;;;-147.17;100.00;-15915.72;5012127;28;50947;-48
2023/03/20 08:46:06;;;;;;;;;5.00;5.00;;;;;-147.17;100.00;-15915.72;5030880;28;51144;-50
2023/03/20 08:48:32;;;;;;;;;6.75;6.75;;;;;-147.17;100.00;-15915.72;5032359;28;51398;-48
2023/03/20 08:50:58;;;;;;;;;6.00;6.00;;;;;-147.17;100.00;-15915.72;5029942;28;51280;-52
2023/03/20 08:53:23;;;;;;;;;9.75;9.50;;;;;-147.17;100.00;-15915.72;5030351;28;50967;-49
2023/03/20 08:55:53;;;;;;;;;11.00;10.25;;;;;-147.17;100.00;-15915.72;5031083;28;51070;-49
2023/03/20 08:58:20;;;;;;;;;7.00;5.75;;;;;-147.17;100.00;-15915.72;5013983;28;51381;-48
2023/03/20 09:00:46;;;;;;;;;5.50;5.00;;;;;-147.17;100.00;-15668.00;5030489;28;52634;-51
2023/03/20 09:03:15;;;;;;;;;7.50;6.50;;;;;-147.17;100.00;-15668.00;5031213;28;51023;-50
2023/03/20 09:05:43;;;;;;;;;5.75;5.75;;;;;-147.17;100.00;-15668.00;5030710;28;51168;-48
2023/03/20 09:08:08;;;;;;;;;7.50;7.00;;;;;-147.17;100.00;-15915.72;5029034;28;51134;-50
2023/03/20 09:10:34;;;;;;;;;8.00;7.00;;;;;-147.17;100.00;-15668.00;5034482;28;52125;-49
2023/03/20 09:13:00;;;;;;;;;9.00;7.25;;;;;-147.17;100.00;-15172.50;5016617;28;51368;-50
2023/03/20 09:15:26;;;;;;;;;11.00;9.25;;;;;-147.17;100.00;-14429.16;5011704;28;51213;-48
2023/03/20 09:17:51;;;;;;;;;9.25;8.00;;;;;-147.17;100.00;-13437.75;5029931;28;51055;-48
2023/03/20 09:20:16;;;;;;;;;9.00;8.00;;;;;-147.17;100.00;-12941.97;5033488;28;51143;-48
2023/03/20 09:22:43;;;;;;;;;11.00;11.00;;;;;-147.17;100.00;-10710.16;5036328;28;51015;-47
2023/03/20 09:25:10;;;;;;;;;12.75;10.00;;;;;-147.17;100.00;-9717.81;5029864;28;51098;-49
2023/03/20 09:27:35;;;;;;;;;18.00;16.75;;;;;-147.17;100.00;-7484.09;5027322;28;51241;-50
2023/03/20 09:30:00;;;;;;;;;11.50;11.50;;;;;-147.17;100.00;-4503.81;5030520;28;51841;-51
2023/03/20 09:32:26;;;;;;;;;14.50;14.25;;;;;-147.17;100.00;-5994.25;5030919;28;52178;-47
2023/03/20 09:34:51;;;;;;;;;11.25;11.25;;;;;-147.17;100.00;-775.19;5031464;28;51310;-50
2023/03/20 09:37:16;;;;;;;;;14.25;12.50;;;;;-147.17;100.00;-1272.53;5030966;28;51149;-48
2023/03/20 09:39:42;;;;;;;;;11.50;11.50;;;;;-147.17;100.00;-2267.06;5028671;28;51243;-50
2023/03/20 09:42:20;;;;;;;;;11.00;11.00;;;;;-147.17;100.00;1463.72;5031161;28;51035;-48
2023/03/20 09:45:13;;;;;;;;;11.50;11.50;;;;;-147.17;100.00;8437.53;5031388;28;51048;-49
2023/03/20 09:48:12;;;;;;;;;9.33;9.00;;;;;-147.17;100.00;10681.81;5029023;28;51106;-53
2023/03/20 09:50:51;;;;;;;;;11.00;9.75;;;;;-147.17;100.00;11430.19;5030476;28;52220;-49
2023/03/20 09:53:25;;;;;;;;;16.00;14.25;;;;;-147.17;100.00;12927.34;5030306;28;51058;-48
2023/03/20 09:55:53;;;;;;;;;14.00;12.75;;;;;-147.17;100.00;12927.34;5022636;28;51250;-48
2023/03/20 09:58:30;;;;;;;;;13.00;12.50;;;;;-147.17;100.00;12677.78;5029840;28;51319;-51
2023/03/20 10:00:58;;;;;;;;;10.67;9.67;;;;;-147.17;100.00;14674.81;5012168;28;54036;-50
2023/03/20 10:03:47;;;;;;;;;4.67;4.67;;;;;-147.17;100.00;16423.03;5029840;28;50947;-49
2023/03/20 10:06:15;;;;;;;;;4.33;4.33;;;;;-147.17;100.00;15423.94;5022367;28;51248;-50
2023/03/20 10:08:42;;;;;;;;;7.33;6.33;;;;;-147.17;100.00;15174.22;5029913;28;51375;-50
2023/03/20 10:11:19;;;;;;;;;5.67;5.67;;;;;-147.17;100.00;14175.44;5030804;28;51998;-50
2023/03/20 10:14:10;;;;;;;;;2.33;2.33;;;;;-147.17;100.00;22978.09;5027111;28;51118;-47
2023/03/20 10:17:06;;;;;;;;;4.00;4.00;;;;;-147.17;100.00;23423.81;5034514;28;51140;-48
2023/03/20 10:19:52;;;;;;;;;3.67;3.67;;;;;-147.17;100.00;27696.09;5042480;28;50936;-50
2023/03/20 10:22:28;;;;;;;;;5.00;4.00;;;;;-147.17;100.00;23025.00;5015896;28;53104;-47
2023/03/20 10:24:56;;;;;;;;;4.00;3.33;;;;;-147.17;100.00;25457.66;5025652;28;50976;-51
2023/03/20 10:27:32;;;;;;;;;3.67;3.00;;;;;-147.17;100.00;21422.31;5011943;28;51381;-49
2023/03/20 10:30:25;;;;;;;;;3.67;3.00;;;;;-147.17;100.00;21422.31;5034463;28;51075;-49
2023/03/20 10:33:15;;;;;;;;;4.33;4.00;;;;;-147.17;100.00;19671.84;5034085;28;51174;-50
2023/03/20 10:35:53;;;;;;;;;4.00;3.00;;;;;-147.17;100.00;17672.25;5033450;28;51085;-47
2023/03/20 10:38:33;;;;;;;;;4.00;4.00;;;;;-147.17;100.00;21672.44;5019365;28;51242;-48
2023/03/20 10:40:59;;;;;;;;;5.00;4.00;;;;;-147.17;100.00;20672.00;5034252;28;51173;-50
2023/03/20 10:43:34;;;;;;;;;4.00;3.00;;;;;-147.17;100.00;20462.97;5012457;28;53617;-49
2023/03/20 10:46:15;;;;;;;;;4.00;4.00;;;;;-147.17;100.00;18921.88;5032646;28;50976;-52
2023/03/20 10:49:04;;;;;;;;;4.67;3.33;;;;;-147.17;100.00;20171.88;5032878;28;51126;-50
2023/03/20 10:51:46;;;;;;;;;4.00;4.00;;;;;-147.17;100.00;20922.09;5032231;28;51106;-49
2023/03/20 10:54:34;;;;;;;;;4.33;4.33;;;;;-147.17;100.00;25584.81;5033554;28;51173;-47
2023/03/20 10:57:02;;;;;;;;;5.00;4.33;;;;;-147.17;100.00;26604.13;5016334;28;51226;-48
2023/03/20 10:59:35;;;;;;;;;5.00;5.00;;;;;-147.17;100.00;25516.34;5024091;28;51131;-49
2023/03/20 11:02:01;;;;;;;;;5.00;4.00;;;;;-147.17;100.00;28896.09;5033192;28;51065;-47
2023/03/20 11:04:26;;;;;;;;;3.67;3.67;;;;;-147.17;100.00;28226.56;5015358;28;52466;-47